Time;durP1;ratioP1;P1;durP2;ratioP2;P2;SDS_P1;SDS_P2;PMS_P1;PMS_P2;Temp;Humidity;BMP_temperature;BMP_pressure;BME280_temperature;BME280_humidity;BME280_pressure;Samples;Min_cycle;Max_cycle;Signal;HPM_P1;HPM_P2
2022/04/15 00:01:22;;;;;;;;;57.75;45.75;13.10;44.60;;;;;;4977638;28;8764;-56
2022/04/15 00:03:52;;;;;;;;;62.50;51.75;13.40;44.00;;;;;;4977591;28;8784;-49
2022/04/15 00:06:19;;;;;;;;;65.00;53.25;13.50;43.10;;;;;;4977776;28;8840;-52
2022/04/15 00:08:45;;;;;;;;;68.25;54.00;13.70;42.90;;;;;;4960713;28;8798;-50
2022/04/15 00:11:11;;;;;;;;;65.50;53.00;13.80;43.00;;;;;;4952104;28;8776;-50
2022/04/15 00:13:37;;;;;;;;;67.50;56.50;13.90;43.00;;;;;;4958037;28;8799;-53
2022/04/15 00:16:05;;;;;;;;;72.75;58.25;13.90;42.90;;;;;;4958259;28;8799;-53
2022/04/15 00:18:31;;;;;;;;;73.50;57.75;13.70;43.30;;;;;;4958017;28;8775;-55
2022/04/15 00:20:57;;;;;;;;;68.50;56.00;13.70;43.20;;;;;;4957995;28;9397;-54
2022/04/15 00:23:24;;;;;;;;;68.50;55.25;13.70;43.90;;;;;;4957878;28;8795;-52
2022/04/15 00:25:50;;;;;;;;;67.50;53.00;13.70;43.90;;;;;;4958066;28;8814;-54
2022/04/15 00:28:16;;;;;;;;;68.25;55.00;13.80;43.50;;;;;;4958054;28;8841;-53
2022/04/15 00:30:42;;;;;;;;;62.75;52.00;13.70;43.80;;;;;;4957814;28;8767;-54
2022/04/15 00:33:08;;;;;;;;;68.50;55.00;13.70;43.90;;;;;;4957950;28;8771;-54
2022/04/15 00:35:34;;;;;;;;;67.50;55.25;13.70;43.80;;;;;;4957659;28;8791;-52
2022/04/15 00:37:59;;;;;;;;;73.25;58.00;13.40;44.20;;;;;;4957873;28;8821;-53
2022/04/15 00:40:25;;;;;;;;;74.00;60.25;13.50;44.50;;;;;;4957820;28;8802;-53
2022/04/15 00:42:51;;;;;;;;;70.50;57.25;13.40;44.40;;;;;;4957576;28;9437;-54
2022/04/15 00:45:17;;;;;;;;;77.25;62.25;13.10;45.10;;;;;;4957641;28;8803;-52
2022/04/15 00:47:54;;;;;;;;;74.75;60.00;13.00;45.80;;;;;;4957665;28;8858;-55
2022/04/15 00:50:25;;;;;;;;;73.25;57.25;12.60;47.30;;;;;;4956280;28;8786;-53
2022/04/15 00:52:52;;;;;;;;;72.25;57.00;12.30;47.90;;;;;;4938258;29;9602;-53
2022/04/15 00:55:20;;;;;;;;;71.25;56.75;12.30;47.70;;;;;;4938133;29;8785;-53
2022/04/15 00:57:56;;;;;;;;;69.25;55.25;12.40;47.30;;;;;;4938424;29;8787;-52
2022/04/15 01:00:23;;;;;;;;;72.25;56.75;12.30;47.30;;;;;;4938525;29;8742;-53
2022/04/15 01:02:50;;;;;;;;;76.00;58.50;12.30;47.90;;;;;;4937976;29;8784;-54
2022/04/15 01:05:17;;;;;;;;;74.50;60.00;12.50;47.60;;;;;;4938125;29;8785;-54
2022/04/15 01:07:50;;;;;;;;;87.50;71.00;12.50;47.10;;;;;;4937901;29;8801;-53
2022/04/15 01:10:17;;;;;;;;;122.75;110.25;12.70;46.90;;;;;;4937925;29;8781;-51
2022/04/15 01:12:57;;;;;;;;;81.75;69.25;12.40;47.50;;;;;;4937802;29;8813;-54
2022/04/15 01:15:27;;;;;;;;;78.50;62.75;12.60;46.80;;;;;;4937843;29;8813;-53
2022/04/15 01:17:54;;;;;;;;;92.75;83.00;12.70;46.50;;;;;;4937993;29;8781;-54
2022/04/15 01:20:20;;;;;;;;;83.50;68.00;12.80;46.10;;;;;;4937923;29;9540;-53
2022/04/15 01:23:09;;;;;;;;;78.50;62.00;12.60;46.60;;;;;;4937728;29;8793;-54
2022/04/15 01:25:35;;;;;;;;;76.50;61.75;12.50;46.90;;;;;;4937804;29;8815;-53
2022/04/15 01:28:01;;;;;;;;;74.00;57.25;12.60;46.40;;;;;;4937968;29;8750;-52
2022/04/15 01:30:27;;;;;;;;;80.00;62.50;12.60;46.70;;;;;;4937541;29;8770;-54
2022/04/15 01:32:52;;;;;;;;;83.50;69.75;12.70;46.70;;;;;;4937808;29;8872;-54
2022/04/15 01:35:20;;;;;;;;;77.00;63.00;12.60;46.60;;;;;;4937753;29;8795;-53
2022/04/15 01:37:47;;;;;;;;;70.25;55.25;12.50;47.20;;;;;;4937371;29;8789;-53
2022/04/15 01:40:15;;;;;;;;;67.25;53.25;12.20;47.30;;;;;;4937394;29;8804;-54
2022/04/15 01:42:43;;;;;;;;;82.25;64.25;12.30;47.10;;;;;;4937689;29;8786;-54
2022/04/15 01:45:10;;;;;;;;;71.50;57.75;12.50;46.90;;;;;;4938067;29;8785;-54
2022/04/15 01:47:36;;;;;;;;;80.75;63.00;12.40;47.10;;;;;;4937527;29;9507;-52
2022/04/15 01:50:04;;;;;;;;;82.00;70.50;12.30;47.50;;;;;;4937250;29;8789;-53
2022/04/15 01:52:29;;;;;;;;;83.75;70.75;12.40;47.00;;;;;;4954060;28;8898;-54
2022/04/15 01:54:55;;;;;;;;;90.50;80.25;12.50;47.50;;;;;;4956371;28;8788;-52
2022/04/15 01:57:21;;;;;;;;;63.50;51.50;12.60;47.30;;;;;;4956346;28;8799;-52
2022/04/15 01:59:47;;;;;;;;;65.25;53.50;12.30;46.90;;;;;;4956530;28;8796;-50
2022/04/15 02:02:12;;;;;;;;;69.50;54.25;12.20;47.00;;;;;;4956514;28;8850;-48
2022/04/15 02:04:38;;;;;;;;;68.75;54.50;11.80;48.10;;;;;;4956493;28;8796;-51
2022/04/15 02:07:04;;;;;;;;;71.50;54.75;12.20;47.80;;;;;;4956201;28;8804;-50
2022/04/15 02:09:30;;;;;;;;;75.75;60.75;12.30;46.90;;;;;;4956497;28;8784;-53
2022/04/15 02:11:57;;;;;;;;;77.25;59.00;12.30;47.20;;;;;;4956217;28;8788;-53
2022/04/15 02:14:22;;;;;;;;;65.75;52.50;12.30;47.10;;;;;;4956686;28;8816;-51
2022/04/15 02:16:51;;;;;;;;;72.25;58.00;11.90;47.70;;;;;;4956383;28;8796;-51
2022/04/15 02:19:17;;;;;;;;;68.75;56.25;11.90;48.20;;;;;;4956082;28;8776;-51
2022/04/15 02:21:43;;;;;;;;;73.25;57.50;12.20;47.30;;;;;;4956356;28;8967;-53
2022/04/15 02:24:09;;;;;;;;;72.25;57.75;12.30;47.10;;;;;;4956161;28;8867;-49
2022/04/15 02:26:35;;;;;;;;;70.25;57.75;12.10;47.10;;;;;;4956036;28;8804;-54
2022/04/15 02:29:00;;;;;;;;;69.00;54.00;11.90;47.80;;;;;;4959941;28;9476;-54
2022/04/15 02:31:26;;;;;;;;;66.50;53.00;11.30;49.50;;;;;;4960210;28;8799;-52
2022/04/15 02:33:52;;;;;;;;;72.50;57.00;10.80;51.30;;;;;;4959826;28;8918;-53
2022/04/15 02:36:18;;;;;;;;;72.25;56.50;10.90;50.80;;;;;;4959757;28;8879;-50
2022/04/15 02:38:44;;;;;;;;;71.50;58.00;11.30;49.70;;;;;;4959919;28;8926;-52
2022/04/15 02:41:10;;;;;;;;;70.25;55.00;11.60;48.40;;;;;;4959662;28;8780;-53
2022/04/15 02:43:39;;;;;;;;;66.25;53.25;11.60;48.30;;;;;;4959891;28;9478;-52
2022/04/15 02:46:08;;;;;;;;;58.00;47.50;11.50;48.10;;;;;;4959488;28;8812;-56
2022/04/15 02:48:34;;;;;;;;;59.00;49.25;11.50;47.40;;;;;;4959437;28;8796;-51
2022/04/15 02:51:01;;;;;;;;;60.00;50.25;11.60;47.10;;;;;;4959391;28;8813;-56
2022/04/15 02:53:27;;;;;;;;;52.25;45.00;11.50;47.50;;;;;;4959826;28;8764;-51
2022/04/15 02:55:53;;;;;;;;;55.25;44.00;11.60;47.80;;;;;;4959643;28;8796;-52
2022/04/15 02:58:20;;;;;;;;;53.25;45.50;11.60;48.30;;;;;;4959399;28;8795;-53
2022/04/15 03:00:46;;;;;;;;;50.75;43.75;11.70;47.90;;;;;;4959498;28;8867;-52
2022/04/15 03:03:12;;;;;;;;;56.25;46.75;11.60;47.60;;;;;;4959702;28;8776;-53
2022/04/15 03:05:41;;;;;;;;;55.25;45.00;11.70;47.40;;;;;;4959262;28;8890;-52
2022/04/15 03:08:08;;;;;;;;;59.75;49.75;11.80;48.00;;;;;;4959587;28;8792;-54
2022/04/15 03:10:34;;;;;;;;;59.25;50.25;11.80;47.60;;;;;;4959462;28;9459;-51
2022/04/15 03:13:00;;;;;;;;;58.00;48.50;11.80;47.30;;;;;;4959400;28;8854;-53
2022/04/15 03:15:26;;;;;;;;;69.00;55.25;11.80;47.40;;;;;;4959401;28;8800;-53
2022/04/15 03:17:52;;;;;;;;;66.25;54.00;11.90;47.40;;;;;;4959331;28;8780;-53
2022/04/15 03:20:18;;;;;;;;;66.50;55.75;11.80;47.70;;;;;;4958091;28;8819;-52
2022/04/15 03:22:45;;;;;;;;;55.00;45.25;11.70;48.10;;;;;;4959319;28;8784;-53
2022/04/15 03:25:17;;;;;;;;;62.25;51.00;11.30;49.00;;;;;;4958954;28;8788;-51
2022/04/15 03:27:46;;;;;;;;;67.25;52.50;11.40;49.30;;;;;;4959027;28;8788;-50
2022/04/15 03:30:14;;;;;;;;;65.75;53.00;11.50;49.00;;;;;;4958942;28;8915;-54
2022/04/15 03:32:50;;;;;;;;;64.25;51.50;11.50;48.80;;;;;;4959171;28;8788;-52
2022/04/15 03:35:20;;;;;;;;;62.50;51.25;11.60;48.70;;;;;;4990112;28;8792;-51
2022/04/15 03:37:49;;;;;;;;;61.50;51.75;11.60;48.70;;;;;;4958804;28;8792;-52
2022/04/15 03:40:16;;;;;;;;;63.25;49.75;11.50;49.00;;;;;;4958058;28;8776;-52
2022/04/15 03:42:46;;;;;;;;;56.50;48.00;11.00;50.30;;;;;;4959254;28;8793;-53
2022/04/15 03:45:14;;;;;;;;;72.00;57.00;10.70;51.00;;;;;;4958942;28;8890;-51
2022/04/15 03:47:41;;;;;;;;;65.50;52.00;11.10;49.90;;;;;;4958864;28;8800;-53
2022/04/15 03:50:08;;;;;;;;;59.50;48.00;10.90;50.50;;;;;;4958769;28;8791;-52
2022/04/15 03:52:42;;;;;;;;;60.00;50.25;11.20;49.50;;;;;;4958410;28;8812;-53
2022/04/15 03:55:10;;;;;;;;;58.50;47.00;11.10;49.60;;;;;;4958560;28;8791;-54
2022/04/15 03:57:36;;;;;;;;;69.25;55.00;10.40;51.80;;;;;;4958491;28;8917;-52
2022/04/15 04:00:04;;;;;;;;;67.00;53.25;10.40;52.40;;;;;;4958457;28;8780;-53
2022/04/15 04:02:30;;;;;;;;;72.25;54.25;10.80;50.90;;;;;;4958326;28;8784;-54
2022/04/15 04:04:55;;;;;;;;;62.50;51.75;11.10;50.20;;;;;;4958382;28;8778;-50
2022/04/15 04:07:21;;;;;;;;;66.75;51.75;10.90;50.30;;;;;;4958101;28;9455;-55
2022/04/15 04:09:47;;;;;;;;;70.50;56.25;11.00;50.20;;;;;;4958361;28;8792;-54
2022/04/15 04:12:13;;;;;;;;;70.50;56.00;11.10;50.20;;;;;;4958261;28;9458;-54
2022/04/15 04:14:39;;;;;;;;;70.00;57.75;11.10;50.40;;;;;;4958379;28;8835;-54
2022/04/15 04:17:04;;;;;;;;;71.00;56.75;11.10;50.40;;;;;;4958310;28;8780;-51
2022/04/15 04:19:30;;;;;;;;;67.50;54.50;11.30;49.70;;;;;;4958235;28;8784;-54
2022/04/15 04:21:56;;;;;;;;;65.25;53.00;11.10;49.80;;;;;;4958156;28;8786;-54
2022/04/15 04:24:21;;;;;;;;;72.75;56.75;10.90;50.70;;;;;;4958130;28;8785;-54
2022/04/15 04:26:47;;;;;;;;;71.00;58.25;11.00;49.80;;;;;;4957998;28;8927;-53
2022/04/15 04:29:13;;;;;;;;;65.00;54.25;11.00;49.90;;;;;;4958053;28;8812;-53
2022/04/15 04:31:38;;;;;;;;;69.00;56.25;11.00;49.90;;;;;;4957937;28;8800;-49
2022/04/15 04:34:04;;;;;;;;;58.00;48.75;10.90;50.20;;;;;;4957717;28;8858;-55
2022/04/15 04:36:30;;;;;;;;;60.75;51.25;10.10;52.90;;;;;;4957698;28;8784;-54
2022/04/15 04:38:55;;;;;;;;;72.75;59.00;10.40;51.90;;;;;;4956742;28;8823;-52
2022/04/15 04:41:21;;;;;;;;;74.00;61.00;10.10;52.20;;;;;;4944030;29;9552;-54
2022/04/15 04:43:47;;;;;;;;;71.50;58.25;10.30;51.70;;;;;;4941985;28;8879;-53
2022/04/15 04:46:13;;;;;;;;;75.75;59.25;10.60;50.70;;;;;;4957097;28;8862;-53
2022/04/15 04:48:39;;;;;;;;;64.25;53.00;10.80;50.90;;;;;;4955651;28;8793;-55
2022/04/15 04:51:04;;;;;;;;;67.00;54.25;11.10;50.30;;;;;;4983255;28;8848;-55
2022/04/15 04:53:30;;;;;;;;;69.25;55.00;11.10;50.30;;;;;;4957341;28;8768;-54
2022/04/15 04:55:56;;;;;;;;;73.00;59.25;11.20;50.00;;;;;;4951016;28;8805;-54
2022/04/15 04:58:21;;;;;;;;;75.25;60.00;11.40;49.30;;;;;;4948383;28;8829;-56
2022/04/15 05:00:47;;;;;;;;;72.25;55.50;11.30;49.30;;;;;;4949045;28;8826;-53
2022/04/15 05:03:13;;;;;;;;;77.75;60.75;11.30;49.80;;;;;;4937953;29;8803;-54
2022/04/15 05:05:39;;;;;;;;;84.25;68.50;11.40;48.90;;;;;;4942382;28;8852;-53
2022/04/15 05:08:05;;;;;;;;;86.25;77.00;11.30;49.00;;;;;;4953958;28;9538;-53
2022/04/15 05:10:32;;;;;;;;;88.75;70.50;10.80;50.60;;;;;;4941506;29;8809;-54
2022/04/15 05:12:59;;;;;;;;;81.75;69.50;11.00;50.40;;;;;;4937905;29;8786;-56
2022/04/15 05:15:25;;;;;;;;;79.50;65.75;11.40;49.90;;;;;;4938137;29;8778;-56
2022/04/15 05:17:51;;;;;;;;;84.25;68.25;11.50;49.60;;;;;;4937974;29;8783;-56
2022/04/15 05:20:16;;;;;;;;;85.00;67.00;11.70;49.10;;;;;;4935991;29;8808;-55
2022/04/15 05:22:50;;;;;;;;;75.75;67.50;11.90;48.60;;;;;;5129439;27;13446;-54
2022/04/15 05:25:15;;;;;;;;;82.00;67.00;11.70;48.70;;;;;;5132778;27;8796;-53
2022/04/15 05:27:41;;;;;;;;;77.25;62.00;11.80;49.40;;;;;;5132789;27;8769;-54
2022/04/15 05:30:07;;;;;;;;;85.00;70.00;11.80;49.10;;;;;;5132749;27;8765;-54
2022/04/15 05:32:33;;;;;;;;;78.25;62.75;11.90;49.20;;;;;;5132810;27;8758;-52
2022/04/15 05:34:59;;;;;;;;;83.75;66.50;12.10;48.90;;;;;;5132665;27;8769;-56
2022/04/15 05:37:25;;;;;;;;;74.75;60.00;12.30;48.50;;;;;;5132941;27;8778;-56
2022/04/15 05:39:51;;;;;;;;;81.00;68.00;12.30;48.30;;;;;;5132463;27;8801;-54
2022/04/15 05:42:16;;;;;;;;;82.50;69.00;12.50;48.00;;;;;;5132670;27;8892;-54
2022/04/15 05:44:42;;;;;;;;;90.25;81.00;12.50;48.00;;;;;;5132401;27;8854;-52
2022/04/15 05:47:08;;;;;;;;;86.25;80.75;12.50;48.60;;;;;;5132322;27;8784;-54
2022/04/15 05:49:34;;;;;;;;;94.50;87.00;12.20;49.50;;;;;;5132672;27;8766;-53
2022/04/15 05:52:03;;;;;;;;;90.25;78.25;12.30;49.70;;;;;;5132398;27;8808;-54
2022/04/15 05:54:29;;;;;;;;;87.00;83.50;12.70;49.10;;;;;;5132345;27;8774;-53
2022/04/15 05:56:55;;;;;;;;;89.75;86.75;13.00;48.60;;;;;;5132221;27;8949;-54
2022/04/15 05:59:21;;;;;;;;;100.00;96.25;13.20;47.90;;;;;;5132465;27;8769;-54
2022/04/15 06:01:48;;;;;;;;;98.00;90.50;12.80;48.50;;;;;;5131998;27;8801;-56
2022/04/15 06:04:14;;;;;;;;;100.00;94.00;12.80;49.00;;;;;;5132301;27;8761;-53
2022/04/15 06:06:40;;;;;;;;;107.00;100.00;13.20;48.60;;;;;;5114025;27;8762;-55
2022/04/15 06:09:06;;;;;;;;;104.75;100.50;13.50;47.80;;;;;;5132205;27;8758;-53
2022/04/15 06:11:32;;;;;;;;;106.25;100.50;13.20;48.60;;;;;;5131937;27;9399;-56
2022/04/15 06:14:00;;;;;;;;;91.25;88.75;13.10;48.50;;;;;;5132097;27;8766;-57
2022/04/15 06:16:31;;;;;;;;;96.25;90.25;12.90;49.00;;;;;;5131804;27;8762;-55
2022/04/15 06:19:00;;;;;;;;;95.75;90.25;13.20;48.80;;;;;;5131986;27;9475;-56
2022/04/15 06:21:26;;;;;;;;;98.25;93.50;13.50;48.20;;;;;;5131315;27;8829;-55
2022/04/15 06:23:51;;;;;;;;;95.50;90.75;13.90;47.20;;;;;;5131677;27;8787;-56
2022/04/15 06:26:17;;;;;;;;;89.25;85.00;14.20;46.70;;;;;;5131494;27;8757;-56
2022/04/15 06:28:43;;;;;;;;;89.50;82.25;13.90;47.50;;;;;;5131856;27;8746;-55
2022/04/15 06:31:08;;;;;;;;;87.00;79.25;13.70;48.00;;;;;;5131592;27;8789;-56
2022/04/15 06:33:36;;;;;;;;;88.00;83.75;14.00;47.00;;;;;;5121256;28;8781;-58
2022/04/15 06:36:03;;;;;;;;;93.50;89.50;14.10;46.90;;;;;;5118050;28;8969;-57
2022/04/15 06:38:29;;;;;;;;;88.75;85.25;14.60;46.00;;;;;;5117694;28;8874;-58
2022/04/15 06:40:54;;;;;;;;;95.75;88.00;14.80;46.00;;;;;;5117634;28;8908;-58
2022/04/15 06:43:20;;;;;;;;;87.75;85.25;15.20;45.10;;;;;;5117887;28;8854;-58
2022/04/15 06:45:46;;;;;;;;;92.50;88.50;15.30;44.60;;;;;;5117909;28;8752;-57
2022/04/15 06:48:12;;;;;;;;;91.00;83.25;15.30;42.90;;;;;;5117752;28;9388;-57
2022/04/15 06:50:37;;;;;;;;;90.75;83.25;15.10;42.70;;;;;;5117418;28;10243;-57
2022/04/15 06:53:03;;;;;;;;;85.25;78.50;15.20;43.40;;;;;;5117639;28;8793;-57
2022/04/15 06:55:29;;;;;;;;;89.50;80.00;15.10;43.70;;;;;;5117332;28;8750;-57
2022/04/15 06:57:55;;;;;;;;;88.75;79.50;14.60;45.00;;;;;;5117557;28;8757;-57
2022/04/15 07:00:21;;;;;;;;;89.75;81.00;14.80;44.90;;;;;;5117276;28;8774;-56
2022/04/15 07:02:46;;;;;;;;;83.75;74.75;15.00;45.10;;;;;;5117369;28;8797;-59
2022/04/15 07:05:12;;;;;;;;;84.00;79.25;14.90;45.00;;;;;;5117396;28;8778;-57
2022/04/15 07:07:39;;;;;;;;;81.75;75.00;15.40;44.20;;;;;;5117102;28;8785;-57
2022/04/15 07:10:07;;;;;;;;;81.75;72.50;15.60;43.50;;;;;;5117079;28;8770;-57
2022/04/15 07:12:33;;;;;;;;;88.00;80.25;16.10;42.50;;;;;;5117346;28;8749;-58
2022/04/15 07:14:59;;;;;;;;;82.00;76.25;16.40;42.00;;;;;;5117322;28;8765;-58
2022/04/15 07:17:25;;;;;;;;;85.25;74.75;16.50;41.50;;;;;;5117164;28;8758;-57
2022/04/15 07:19:51;;;;;;;;;86.00;80.00;16.60;41.20;;;;;;5116932;28;8892;-58
2022/04/15 07:22:18;;;;;;;;;81.25;77.50;16.70;40.70;;;;;;5116525;28;8837;-58
2022/04/15 07:24:44;;;;;;;;;78.25;70.25;16.90;40.40;;;;;;5116827;28;8766;-57
2022/04/15 07:27:10;;;;;;;;;85.25;79.75;17.10;40.00;;;;;;5117052;28;8758;-57
2022/04/15 07:29:36;;;;;;;;;83.50;77.00;17.20;39.90;;;;;;5116733;28;8900;-54
2022/04/15 07:32:02;;;;;;;;;83.25;77.75;17.30;39.30;;;;;;5116629;28;8822;-56
2022/04/15 07:34:28;;;;;;;;;82.75;72.50;17.40;39.10;;;;;;5116685;28;8925;-57
2022/04/15 07:36:54;;;;;;;;;80.75;74.25;17.30;38.70;;;;;;5116769;28;8869;-60
2022/04/15 07:39:20;;;;;;;;;80.00;70.00;17.20;38.30;;;;;;5098860;28;8844;-57
2022/04/15 07:41:47;;;;;;;;;92.50;82.00;17.30;38.40;;;;;;5116572;28;8777;-56
2022/04/15 07:44:14;;;;;;;;;82.25;78.50;17.20;41.10;;;;;;5115480;28;8762;-58
2022/04/15 07:46:42;;;;;;;;;86.50;78.00;16.80;41.90;;;;;;5116558;28;8836;-57
2022/04/15 07:49:09;;;;;;;;;79.50;73.50;17.10;41.30;;;;;;5116266;28;9537;-57
2022/04/15 07:51:35;;;;;;;;;80.00;70.00;17.20;40.60;;;;;;5116593;28;8863;-58
2022/04/15 07:54:03;;;;;;;;;75.50;60.25;17.50;39.80;;;;;;5116101;28;8774;-55
2022/04/15 07:56:28;;;;;;;;;72.50;56.50;17.70;39.30;;;;;;5115800;28;8834;-58
2022/04/15 07:58:54;;;;;;;;;75.75;59.75;17.90;38.60;;;;;;5115553;28;8766;-59
2022/04/15 08:01:21;;;;;;;;;75.50;62.25;17.80;38.40;;;;;;5097784;28;8809;-59
2022/04/15 08:03:48;;;;;;;;;70.00;55.25;17.90;37.90;;;;;;5116251;28;8734;-59
2022/04/15 08:06:15;;;;;;;;;70.50;57.00;17.80;36.50;;;;;;5116241;28;8765;-59
2022/04/15 08:08:41;;;;;;;;;64.00;50.25;17.50;36.60;;;;;;5115790;28;8876;-59
2022/04/15 08:11:06;;;;;;;;;64.25;51.50;17.80;36.00;;;;;;5116147;28;8761;-59
2022/04/15 08:13:32;;;;;;;;;61.25;50.00;18.00;35.80;;;;;;5115871;28;8753;-58
2022/04/15 08:15:58;;;;;;;;;60.00;49.25;18.30;36.40;;;;;;5115994;28;8834;-58
2022/04/15 08:18:25;;;;;;;;;64.25;52.25;18.40;35.50;;;;;;5115689;28;8757;-58
2022/04/15 08:20:56;;;;;;;;;61.25;48.25;18.50;35.30;;;;;;5115672;28;8845;-58
2022/04/15 08:23:22;;;;;;;;;62.00;51.00;18.60;35.50;;;;;;5115936;28;8790;-57
2022/04/15 08:25:48;;;;;;;;;66.25;53.00;18.70;35.20;;;;;;5115665;28;8782;-65
2022/04/15 08:28:14;;;;;;;;;64.00;53.00;18.80;35.00;;;;;;5115718;28;8762;-59
2022/04/15 08:30:40;;;;;;;;;57.50;47.00;19.00;35.10;;;;;;5115774;28;8777;-58
2022/04/15 08:33:07;;;;;;;;;58.25;47.00;18.80;33.80;;;;;;5115465;28;8750;-55
2022/04/15 08:35:34;;;;;;;;;54.75;44.25;18.60;34.10;;;;;;5115338;28;8757;-55
2022/04/15 08:37:59;;;;;;;;;53.50;46.00;18.80;34.20;;;;;;5115476;28;8918;-55
2022/04/15 08:40:33;;;;;;;;;45.75;38.25;19.10;33.70;;;;;;5115298;28;8769;-57
2022/04/15 08:43:02;;;;;;;;;50.00;41.00;19.00;34.10;;;;;;5097310;28;8794;-54
2022/04/15 08:45:29;;;;;;;;;46.25;39.00;18.70;34.40;;;;;;5115531;28;8770;-60
2022/04/15 08:47:57;;;;;;;;;52.75;43.50;18.90;34.80;;;;;;5115214;28;9788;-59
2022/04/15 08:50:24;;;;;;;;;55.00;44.75;19.00;35.00;;;;;;5097143;28;8782;-57
2022/04/15 08:53:00;;;;;;;;;50.00;42.00;18.80;35.90;;;;;;5115106;28;8766;-58
2022/04/15 08:55:27;;;;;;;;;48.00;40.75;19.00;35.50;;;;;;5114898;28;8766;-60
2022/04/15 08:57:54;;;;;;;;;51.00;42.00;19.00;34.90;;;;;;5115334;28;8769;-58
2022/04/15 09:00:21;;;;;;;;;49.25;40.25;19.00;35.80;;;;;;5115189;28;8762;-58
2022/04/15 09:02:47;;;;;;;;;53.25;43.50;19.30;35.90;;;;;;5115234;28;8786;-58
2022/04/15 09:05:18;;;;;;;;;48.25;41.75;19.20;35.50;;;;;;5115074;28;8798;-58
2022/04/15 09:07:45;;;;;;;;;44.25;39.25;19.40;35.50;;;;;;5115074;28;8862;-59
2022/04/15 09:10:11;;;;;;;;;45.75;36.00;19.30;35.10;;;;;;5115019;28;9462;-63
2022/04/15 09:12:40;;;;;;;;;46.50;39.50;19.00;35.60;;;;;;5115190;28;8846;-60
2022/04/15 09:15:06;;;;;;;;;47.50;37.50;19.00;35.50;;;;;;5115122;28;8766;-57
2022/04/15 09:17:34;;;;;;;;;41.25;34.75;19.20;35.50;;;;;;5115081;28;8794;-58
2022/04/15 09:20:01;;;;;;;;;42.75;36.00;19.70;35.20;;;;;;5115279;28;8930;-56
2022/04/15 09:22:27;;;;;;;;;35.33;33.00;20.00;34.50;;;;;;5114614;28;8935;-59
2022/04/15 09:24:53;;;;;;;;;41.00;34.33;20.10;34.20;;;;;;5114825;28;8769;-56
2022/04/15 09:27:23;;;;;;;;;34.33;31.67;20.10;32.60;;;;;;5115135;28;8749;-59
2022/04/15 09:29:51;;;;;;;;;34.67;33.00;20.40;33.60;;;;;;5114396;28;8765;-54
2022/04/15 09:32:18;;;;;;;;;34.00;32.67;20.40;32.90;;;;;;5114150;28;8876;-55
2022/04/15 09:35:03;;;;;;;;;32.67;31.00;20.20;33.40;;;;;;5114506;28;8760;-53
2022/04/15 09:37:42;;;;;;;;;33.00;31.00;20.20;33.50;;;;;;5114740;28;8778;-55
2022/04/15 09:40:25;;;;;;;;;35.00;33.00;20.80;33.70;;;;;;5114634;28;8751;-55
2022/04/15 09:42:56;;;;;;;;;33.00;32.33;20.80;33.70;;;;;;5096523;28;8798;-56
2022/04/15 09:45:35;;;;;;;;;30.00;29.00;20.90;32.60;;;;;;5114818;28;8782;-55
2022/04/15 09:48:07;;;;;;;;;29.00;28.67;20.90;32.60;;;;;;5114930;28;8839;-57
2022/04/15 09:50:37;;;;;;;;;26.00;25.67;21.20;32.00;;;;;;5114661;28;8771;-58
2022/04/15 09:53:21;;;;;;;;;26.33;25.00;21.00;32.60;;;;;;5114446;28;8759;-55
2022/04/15 09:55:51;;;;;;;;;31.00;30.33;21.30;32.40;;;;;;5114658;28;8770;-55
2022/04/15 09:58:19;;;;;;;;;30.67;30.67;21.50;31.60;;;;;;5114841;28;8778;-56
2022/04/15 10:00:48;;;;;;;;;30.67;30.67;21.90;31.70;;;;;;5114544;28;8736;-56
2022/04/15 10:03:24;;;;;;;;;42.67;36.33;22.20;31.70;;;;;;5114434;28;8767;-55
2022/04/15 10:05:51;;;;;;;;;35.00;33.67;22.10;29.80;;;;;;5114414;28;8845;-55
2022/04/15 10:08:21;;;;;;;;;40.67;37.33;22.10;29.10;;;;;;5115934;28;8763;-54
2022/04/15 10:10:47;;;;;;;;;46.33;37.67;22.10;29.30;;;;;;5118335;28;8748;-55
2022/04/15 10:13:16;;;;;;;;;30.00;30.00;22.10;29.50;;;;;;5118344;28;8770;-61
2022/04/15 10:15:43;;;;;;;;;32.00;31.33;22.50;30.00;;;;;;5118471;28;8751;-56
2022/04/15 10:18:09;;;;;;;;;26.67;26.67;22.10;28.50;;;;;;5100369;28;8766;-57
2022/04/15 10:20:39;;;;;;;;;31.00;29.67;22.10;29.50;;;;;;5117626;28;8756;-58
2022/04/15 10:23:07;;;;;;;;;29.67;29.00;22.20;28.60;;;;;;5118029;28;8774;-59
2022/04/15 10:25:34;;;;;;;;;31.67;27.67;22.40;28.40;;;;;;5118232;28;8755;-58
2022/04/15 10:28:06;;;;;;;;;33.67;32.33;22.40;28.90;;;;;;5117924;28;8747;-57
2022/04/15 10:30:32;;;;;;;;;32.00;31.00;23.00;29.30;;;;;;5117886;28;8747;-58
2022/04/15 10:32:57;;;;;;;;;33.00;29.67;23.00;30.00;;;;;;5118121;28;8769;-58
2022/04/15 10:35:28;;;;;;;;;29.67;29.00;23.00;29.70;;;;;;5117930;28;8863;-54
2022/04/15 10:38:14;;;;;;;;;27.33;27.00;22.90;27.80;;;;;;5117934;28;8766;-55
2022/04/15 10:40:43;;;;;;;;;31.33;29.67;22.90;27.80;;;;;;5117190;28;8755;-58
2022/04/15 10:43:21;;;;;;;;;31.00;29.67;23.30;28.20;;;;;;5117539;28;8751;-55
2022/04/15 10:45:47;;;;;;;;;30.67;28.33;23.60;27.70;;;;;;5117476;28;8771;-58
2022/04/15 10:48:13;;;;;;;;;31.33;30.67;23.60;27.80;;;;;;5117598;28;8751;-64
2022/04/15 10:50:40;;;;;;;;;34.00;31.67;23.90;27.40;;;;;;5117431;28;8825;-60
2022/04/15 10:53:23;;;;;;;;;31.33;31.33;24.30;26.90;;;;;;5117815;28;8732;-55
2022/04/15 10:55:52;;;;;;;;;30.67;29.33;24.10;28.20;;;;;;5117653;28;8774;-57
2022/04/15 10:58:19;;;;;;;;;38.00;33.00;23.70;26.00;;;;;;5117174;28;8759;-54
2022/04/15 11:01:14;;;;;;;;;32.00;30.67;24.00;26.30;;;;;;5117105;28;8857;-56
2022/04/15 11:03:42;;;;;;;;;40.00;36.00;24.60;27.20;;;;;;5117537;28;8798;-57
2022/04/15 11:06:09;;;;;;;;;38.00;32.00;25.00;26.30;;;;;;5117305;28;8774;-56
2022/04/15 11:08:49;;;;;;;;;26.00;24.33;25.10;25.80;;;;;;5117417;28;8775;-56
2022/04/15 11:11:18;;;;;;;;;27.67;26.00;25.00;27.40;;;;;;5117267;28;8739;-57
2022/04/15 11:13:44;;;;;;;;;25.67;25.67;24.90;24.50;;;;;;5116914;28;8771;-56
2022/04/15 11:16:12;;;;;;;;;27.33;25.33;24.70;26.00;;;;;;5117205;28;8778;-55
2022/04/15 11:18:54;;;;;;;;;21.33;19.67;25.20;25.10;;;;;;5099214;28;8766;-58
2022/04/15 11:21:40;;;;;;;;;26.33;25.67;25.40;24.40;;;;;;5116797;28;8900;-57
2022/04/15 11:24:08;;;;;;;;;25.33;23.33;25.50;23.80;;;;;;5116895;28;8747;-56
2022/04/15 11:26:36;;;;;;;;;22.00;22.00;25.70;23.60;;;;;;5116971;28;9424;-56
2022/04/15 11:29:05;;;;;;;;;23.00;21.00;25.80;24.60;;;;;;5116745;28;8779;-56
2022/04/15 11:31:36;;;;;;;;;25.67;24.00;26.10;23.80;;;;;;5116874;28;8802;-56
2022/04/15 11:34:06;;;;;;;;;23.33;22.33;26.10;23.00;;;;;;5116859;28;8755;-57
2022/04/15 11:36:37;;;;;;;;;24.33;22.67;26.00;23.90;;;;;;5116618;28;8885;-57
2022/04/15 11:39:06;;;;;;;;;22.67;21.67;26.00;24.80;;;;;;5116551;28;8771;-56
2022/04/15 11:41:33;;;;;;;;;21.33;20.67;26.00;23.60;;;;;;5116476;28;8838;-59
2022/04/15 11:44:06;;;;;;;;;24.67;24.33;26.00;23.80;;;;;;5116573;28;9427;-59
2022/04/15 11:46:42;;;;;;;;;23.00;23.00;26.00;24.40;;;;;;5116784;28;8743;-59
2022/04/15 11:49:26;;;;;;;;;20.67;20.33;26.40;24.60;;;;;;5116613;28;8770;-59
2022/04/15 11:51:53;;;;;;;;;18.00;18.00;26.40;24.70;;;;;;5115520;28;8807;-57
2022/04/15 11:54:31;;;;;;;;;21.33;21.33;26.20;24.20;;;;;;5116583;28;8802;-60
2022/04/15 11:56:58;;;;;;;;;25.67;22.00;26.40;24.70;;;;;;5116436;28;8759;-59
2022/04/15 11:59:25;;;;;;;;;20.33;20.33;26.70;25.60;;;;;;5116450;28;9404;-60
2022/04/15 12:01:53;;;;;;;;;14.33;14.33;26.60;24.30;;;;;;5116221;28;8848;-59
2022/04/15 12:04:19;;;;;;;;;20.67;20.00;26.50;22.80;;;;;;5116113;28;9490;-60
2022/04/15 12:06:44;;;;;;;;;23.00;22.00;26.70;23.00;;;;;;5115749;28;8751;-60
2022/04/15 12:09:15;;;;;;;;;19.00;19.00;26.90;24.10;;;;;;5116234;28;8835;-60
2022/04/15 12:11:42;;;;;;;;;18.67;18.67;26.80;22.80;;;;;;5115905;28;8787;-60
2022/04/15 12:14:09;;;;;;;;;17.67;17.67;26.70;23.00;;;;;;5097759;28;8763;-60
2022/04/15 12:16:38;;;;;;;;;20.00;20.00;26.80;24.00;;;;;;5115839;28;8755;-60
2022/04/15 12:19:04;;;;;;;;;18.67;18.67;26.80;23.70;;;;;;5115818;28;9392;-60
2022/04/15 12:21:32;;;;;;;;;21.67;21.67;27.20;24.20;;;;;;5115329;28;8826;-59
2022/04/15 12:24:19;;;;;;;;;17.00;17.00;27.60;22.20;;;;;;5115892;28;8808;-60
2022/04/15 12:26:46;;;;;;;;;21.33;21.33;28.30;23.10;;;;;;5116249;28;8773;-60
2022/04/15 12:32:22;;;;;;;;;22.00;20.67;28.50;23.40;;;;;;5115149;28;8743;-58
2022/04/15 12:35:00;;;;;;;;;19.00;19.00;28.30;21.90;;;;;;5115556;28;12019;-59
2022/04/15 12:37:49;;;;;;;;;18.25;18.25;27.90;23.10;;;;;;5115563;28;11385;-57
2022/04/15 12:40:14;;;;;;;;;18.33;18.33;29.30;23.00;;;;;;5115602;28;11357;-58
2022/04/15 12:42:43;;;;;;;;;15.33;15.33;30.00;20.90;;;;;;5115469;28;12124;-58